createdAt,value
2023-05-21T00:00:13.286Z,83.83
2023-05-21T00:01:13.350Z,83.83
2023-05-21T00:02:13.377Z,84.08
2023-05-21T00:03:13.352Z,84.28
2023-05-21T00:04:13.272Z,84.38
2023-05-21T00:05:14.630Z,84.48
2023-05-21T00:06:13.238Z,84.58
2023-05-21T00:07:13.224Z,84.78
2023-05-21T00:08:13.195Z,84.89
2023-05-21T00:09:13.241Z,84.89
2023-05-21T00:10:13.204Z,84.89
2023-05-21T00:11:13.204Z,85.13
2023-05-21T00:12:13.287Z,85.13
2023-05-21T00:13:13.149Z,85.24
2023-05-21T00:14:13.133Z,85.24
2023-05-21T00:15:13.129Z,85.44
2023-05-21T00:16:13.143Z,85.53
2023-05-21T00:17:13.124Z,85.53
2023-05-21T00:18:13.148Z,85.74
2023-05-21T00:19:13.105Z,85.64
2023-05-21T00:20:13.067Z,85.64
2023-05-21T00:21:13.029Z,85.53
2023-05-21T00:22:13.033Z,85.44
2023-05-21T00:23:13.009Z,85.44
2023-05-21T00:24:13.000Z,85.53
2023-05-21T00:25:13.001Z,85.53
2023-05-21T00:26:12.995Z,85.64
2023-05-21T00:27:12.982Z,85.64
2023-05-21T00:28:12.929Z,85.64
2023-05-21T00:29:12.959Z,85.74
2023-05-21T00:30:12.929Z,85.64
2023-05-21T00:31:12.932Z,85.84
2023-05-21T00:32:12.924Z,85.84
2023-05-21T00:33:12.875Z,85.84
2023-05-21T00:34:12.877Z,85.88
2023-05-21T00:35:12.868Z,85.98
2023-05-21T00:36:12.850Z,85.98
2023-05-21T00:37:12.815Z,85.98
2023-05-21T00:38:12.820Z,86.08
2023-05-21T00:39:12.824Z,86.19
2023-05-21T00:40:12.807Z,86.19
2023-05-21T00:41:12.789Z,86.29
2023-05-21T00:42:12.747Z,86.39
2023-05-21T00:43:12.757Z,86.39
2023-05-21T00:44:12.708Z,86.39
2023-05-21T00:45:12.764Z,86.39
2023-05-21T00:46:12.758Z,86.39
2023-05-21T00:47:12.711Z,86.39
2023-05-21T00:48:12.703Z,86.29
2023-05-21T00:49:12.681Z,86.29
2023-05-21T00:50:12.671Z,86.08
2023-05-21T00:51:12.667Z,86.08
2023-05-21T00:52:12.696Z,86.29
2023-05-21T00:53:12.635Z,86.49
2023-05-21T00:54:12.594Z,86.49
2023-05-21T00:55:12.639Z,86.39
2023-05-21T00:56:12.556Z,86.39
2023-05-21T00:57:12.564Z,86.39
2023-05-21T00:58:12.524Z,86.39
2023-05-21T00:59:12.559Z,86.49
2023-05-21T01:00:12.552Z,86.59
2023-05-21T01:01:12.527Z,86.59
2023-05-21T01:02:12.554Z,86.69
2023-05-21T01:03:12.610Z,86.69
2023-05-21T01:04:12.502Z,86.80
2023-05-21T01:05:12.489Z,86.80
2023-05-21T01:06:12.443Z,86.90
2023-05-21T01:07:12.460Z,86.90
2023-05-21T01:08:12.413Z,87.00
2023-05-21T01:09:12.424Z,87.10
2023-05-21T01:10:12.414Z,87.10
2023-05-21T01:11:12.376Z,87.20
2023-05-21T01:12:12.384Z,87.20
2023-05-21T01:13:12.392Z,87.10
2023-05-21T01:14:12.326Z,87.10
2023-05-21T01:15:12.336Z,87.10
2023-05-21T01:16:12.333Z,87.20
2023-05-21T01:17:12.428Z,87.20
2023-05-21T01:18:12.335Z,87.30
2023-05-21T01:19:12.335Z,87.34
2023-05-21T01:20:12.276Z,87.30
2023-05-21T01:21:12.240Z,87.34
2023-05-21T01:22:12.238Z,87.40
2023-05-21T01:23:12.238Z,87.45
2023-05-21T01:24:12.215Z,87.55
2023-05-21T01:25:12.224Z,87.45
2023-05-21T01:26:12.174Z,87.34
2023-05-21T01:27:12.160Z,87.45
2023-05-21T01:28:12.154Z,87.34
2023-05-21T01:29:12.145Z,87.24
2023-05-21T01:30:12.156Z,87.34
2023-05-21T01:31:12.113Z,87.34
2023-05-21T01:32:12.096Z,87.10
2023-05-21T01:33:12.159Z,87.24
2023-05-21T01:34:12.054Z,87.34
2023-05-21T01:35:12.113Z,87.45
2023-05-21T01:36:12.085Z,87.34
2023-05-21T01:37:12.038Z,87.24
2023-05-21T01:38:12.032Z,87.14
2023-05-21T01:39:12.036Z,87.10
2023-05-21T01:40:12.000Z,87.20
2023-05-21T01:41:12.009Z,87.00
2023-05-21T01:42:11.973Z,86.90
2023-05-21T01:43:11.950Z,86.90
2023-05-21T01:44:11.982Z,86.90
2023-05-21T01:45:11.968Z,86.90
2023-05-21T01:46:11.971Z,87.00
2023-05-21T01:47:11.909Z,87.00
2023-05-21T01:48:11.883Z,87.14
2023-05-21T01:49:11.909Z,87.24
2023-05-21T01:50:11.895Z,87.24
2023-05-21T01:51:11.850Z,87.04
2023-05-21T01:52:11.829Z,86.94
2023-05-21T01:53:11.850Z,87.04
2023-05-21T01:54:11.790Z,87.04
2023-05-21T01:55:11.850Z,86.74
2023-05-21T01:56:11.796Z,86.83
2023-05-21T01:57:11.793Z,86.94
2023-05-21T01:58:11.766Z,86.94
2023-05-21T01:59:11.759Z,87.04
2023-05-21T02:00:11.775Z,87.14
2023-05-21T02:01:11.760Z,87.24
2023-05-21T02:02:11.764Z,87.45
2023-05-21T02:03:11.796Z,87.34
2023-05-21T02:04:11.776Z,87.45
2023-05-21T02:05:11.671Z,87.45
2023-05-21T02:06:11.674Z,87.55
2023-05-21T02:07:11.670Z,87.65
2023-05-21T02:08:11.645Z,87.65
2023-05-21T02:09:11.658Z,87.65
2023-05-21T02:10:11.633Z,87.65
2023-05-21T02:11:11.621Z,87.75
2023-05-21T02:12:11.569Z,87.85
2023-05-21T02:13:11.581Z,87.65
2023-05-21T02:14:11.542Z,87.45
2023-05-21T02:15:11.544Z,87.45
2023-05-21T02:16:11.571Z,87.59
2023-05-21T02:17:11.533Z,87.59
2023-05-21T02:18:11.633Z,87.59
2023-05-21T02:19:11.626Z,87.79
2023-05-21T02:20:11.510Z,87.89
2023-05-21T02:21:11.537Z,87.89
2023-05-21T02:22:11.436Z,87.89
2023-05-21T02:23:11.458Z,87.99
2023-05-21T02:24:11.441Z,87.99
2023-05-21T02:25:11.405Z,87.99
2023-05-21T02:26:11.403Z,87.99
2023-05-21T02:27:11.400Z,88.10
2023-05-21T02:28:11.401Z,88.20
2023-05-21T02:29:11.375Z,88.20
2023-05-21T02:30:11.340Z,88.30
2023-05-21T02:31:11.354Z,88.30
2023-05-21T02:32:11.353Z,88.30
2023-05-21T02:33:11.325Z,88.40
2023-05-21T02:34:11.362Z,88.30
2023-05-21T02:35:11.267Z,88.30
2023-05-21T02:36:11.263Z,88.30
2023-05-21T02:37:11.280Z,88.20
2023-05-21T02:38:11.248Z,88.20
2023-05-21T02:39:11.217Z,88.30
2023-05-21T02:40:11.243Z,88.40
2023-05-21T02:41:11.224Z,88.50
2023-05-21T02:42:11.174Z,88.40
2023-05-21T02:43:11.200Z,88.40
2023-05-21T02:44:11.149Z,88.20
2023-05-21T02:45:11.168Z,88.20
2023-05-21T02:46:11.223Z,88.20
2023-05-21T02:47:11.136Z,88.30
2023-05-21T02:48:11.185Z,88.30
2023-05-21T02:49:11.137Z,88.40
2023-05-21T02:50:11.128Z,88.50
2023-05-21T02:51:11.083Z,88.60
2023-05-21T02:52:11.090Z,88.30
2023-05-21T02:53:11.025Z,88.20
2023-05-21T02:54:11.056Z,88.20
2023-05-21T02:55:10.998Z,88.40
2023-05-21T02:56:11.027Z,88.40
2023-05-21T02:57:11.002Z,88.30
2023-05-21T02:58:10.976Z,88.30
2023-05-21T02:59:10.962Z,87.99
2023-05-21T03:00:10.982Z,87.99
2023-05-21T03:01:10.972Z,87.89
2023-05-21T03:02:10.947Z,87.59
2023-05-21T03:03:11.048Z,87.59
2023-05-21T03:04:10.898Z,87.49
2023-05-21T03:05:10.885Z,87.38
2023-05-21T03:06:10.923Z,87.38
2023-05-21T03:07:10.849Z,87.18
2023-05-21T03:08:10.890Z,87.08
2023-05-21T03:09:10.809Z,87.08
2023-05-21T03:10:10.809Z,87.18
2023-05-21T03:11:10.847Z,87.18
2023-05-21T03:12:10.941Z,87.18
2023-05-21T03:13:10.817Z,87.08
2023-05-21T03:14:10.760Z,87.08
2023-05-21T03:15:10.754Z,87.08
2023-05-21T03:16:10.810Z,87.18
2023-05-21T03:17:10.717Z,87.18
2023-05-21T03:18:10.815Z,87.18
2023-05-21T03:19:10.757Z,87.08
2023-05-21T03:20:10.764Z,87.29
2023-05-21T03:21:10.684Z,87.38
2023-05-21T03:22:10.734Z,87.49
2023-05-21T03:23:10.660Z,87.49
2023-05-21T03:24:10.671Z,87.79
2023-05-21T03:25:10.688Z,87.79
2023-05-21T03:26:10.695Z,87.79
2023-05-21T03:27:10.613Z,87.99
2023-05-21T03:28:10.676Z,87.89
2023-05-21T03:29:10.589Z,87.89
2023-05-21T03:30:10.592Z,87.79
2023-05-21T03:31:10.543Z,87.69
2023-05-21T03:32:10.579Z,87.89
2023-05-21T03:33:10.598Z,87.89
2023-05-21T03:34:10.527Z,87.69
2023-05-21T03:35:10.502Z,87.79
2023-05-21T03:36:10.487Z,87.79
2023-05-21T03:37:10.484Z,87.79
2023-05-21T03:38:10.466Z,87.69
2023-05-21T03:39:10.443Z,87.59
2023-05-21T03:40:10.449Z,87.49
2023-05-21T03:41:10.403Z,87.59
2023-05-21T03:42:10.409Z,87.59
2023-05-21T03:43:10.371Z,87.59
2023-05-21T03:44:10.367Z,87.49
2023-05-21T03:45:10.330Z,87.38
2023-05-21T03:46:10.394Z,87.38
2023-05-21T03:47:10.336Z,87.38
2023-05-21T03:48:10.332Z,87.38
2023-05-21T03:49:10.314Z,87.38
2023-05-21T03:50:10.342Z,87.38
2023-05-21T03:51:10.279Z,87.49
2023-05-21T03:52:10.280Z,87.69
2023-05-21T03:53:10.248Z,87.79
2023-05-21T03:54:10.268Z,87.89
2023-05-21T03:55:10.211Z,87.79
2023-05-21T03:56:10.258Z,87.69
2023-05-21T03:57:10.221Z,87.59
2023-05-21T03:58:10.174Z,87.49
2023-05-21T03:59:10.190Z,87.29
2023-05-21T04:00:10.206Z,87.29
2023-05-21T04:01:10.164Z,87.29
2023-05-21T04:02:10.187Z,87.29
2023-05-21T04:03:10.208Z,87.29
2023-05-21T04:04:10.241Z,87.38
2023-05-21T04:05:10.127Z,87.29
2023-05-21T04:06:10.368Z,87.38
2023-05-21T04:07:10.086Z,87.49
2023-05-21T04:08:10.082Z,87.38
2023-05-21T04:09:10.056Z,87.29
2023-05-21T04:10:10.088Z,87.49
2023-05-21T04:11:10.031Z,87.59
2023-05-21T04:12:10.086Z,87.34
2023-05-21T04:13:10.015Z,87.34
2023-05-21T04:14:09.968Z,87.34
2023-05-21T04:15:09.977Z,87.24
2023-05-21T04:16:10.053Z,87.34
2023-05-21T04:17:09.947Z,87.45
2023-05-21T04:18:09.954Z,87.45
2023-05-21T04:19:09.928Z,87.55
2023-05-21T04:20:09.927Z,87.65
2023-05-21T04:21:09.863Z,87.85
2023-05-21T04:22:09.885Z,87.95
2023-05-21T04:23:09.894Z,87.95
2023-05-21T04:24:09.888Z,87.95
2023-05-21T04:25:09.813Z,87.95
2023-05-21T04:26:09.840Z,88.06
2023-05-21T04:27:09.857Z,88.16
2023-05-21T04:28:09.806Z,88.26
2023-05-21T04:29:09.776Z,88.26
2023-05-21T04:30:09.787Z,88.26
2023-05-21T04:31:09.762Z,88.16
2023-05-21T04:32:09.749Z,88.16
2023-05-21T04:33:09.747Z,87.95
2023-05-21T04:34:09.737Z,87.85
2023-05-21T04:35:09.687Z,87.95
2023-05-21T04:36:09.704Z,88.06
2023-05-21T04:37:09.653Z,88.26
2023-05-21T04:38:09.660Z,88.26
2023-05-21T04:39:09.649Z,88.46
2023-05-21T04:40:09.669Z,88.67
2023-05-21T04:41:09.613Z,88.67
2023-05-21T04:42:09.630Z,88.56
2023-05-21T04:43:09.616Z,88.46
2023-05-21T04:44:09.594Z,88.36
2023-05-21T04:45:09.566Z,88.46
2023-05-21T04:46:09.708Z,88.46
2023-05-21T04:47:09.589Z,88.26
2023-05-21T04:48:09.561Z,88.06
2023-05-21T04:49:09.527Z,87.95
2023-05-21T04:50:09.506Z,88.16
2023-05-21T04:51:09.483Z,88.36
2023-05-21T04:52:09.495Z,88.16
2023-05-21T04:53:09.464Z,88.26
2023-05-21T04:54:09.460Z,88.26
2023-05-21T04:55:09.460Z,88.16
2023-05-21T04:56:09.474Z,88.06
2023-05-21T04:57:09.433Z,87.95
2023-05-21T04:58:09.413Z,87.95
2023-05-21T04:59:09.424Z,88.06
2023-05-21T05:00:09.365Z,87.95
2023-05-21T05:01:09.411Z,87.95
2023-05-21T05:02:09.369Z,88.06
2023-05-21T05:03:09.401Z,88.16
2023-05-21T05:04:09.335Z,88.16
2023-05-21T05:05:09.279Z,88.06
2023-05-21T05:06:09.324Z,88.06
2023-05-21T05:07:09.276Z,88.06
2023-05-21T05:08:09.298Z,87.95
2023-05-21T05:09:09.250Z,87.95
2023-05-21T05:10:09.274Z,87.95
2023-05-21T05:11:09.289Z,88.16
2023-05-21T05:12:09.225Z,88.36
2023-05-21T05:13:10.376Z,88.46
2023-05-21T05:14:09.209Z,88.06
2023-05-21T05:15:09.184Z,88.16
2023-05-21T05:16:09.206Z,88.26
2023-05-21T05:17:09.132Z,88.26
2023-05-21T05:18:09.222Z,88.16
2023-05-21T05:19:09.203Z,88.26
2023-05-21T05:20:09.121Z,88.36
2023-05-21T05:21:09.109Z,88.36
2023-05-21T05:22:09.070Z,88.26
2023-05-21T05:23:09.090Z,88.26
2023-05-21T05:24:09.071Z,88.21
2023-05-21T05:25:09.053Z,88.42
2023-05-21T05:26:09.030Z,88.62
2023-05-21T05:27:09.040Z,88.62
2023-05-21T05:28:08.992Z,88.62
2023-05-21T05:29:09.022Z,88.62
2023-05-21T05:30:08.988Z,88.42
2023-05-21T05:31:08.995Z,88.32
2023-05-21T05:32:08.942Z,88.42
2023-05-21T05:33:08.996Z,88.48
2023-05-21T05:34:08.909Z,88.28
2023-05-21T05:35:08.931Z,88.07
2023-05-21T05:36:08.910Z,88.07
2023-05-21T05:37:08.885Z,87.87
2023-05-21T05:38:08.946Z,87.67
2023-05-21T05:39:08.859Z,87.67
2023-05-21T05:40:08.860Z,87.77
2023-05-21T05:41:08.844Z,87.77
2023-05-21T05:42:08.856Z,87.87
2023-05-21T05:43:08.833Z,87.67
2023-05-21T05:44:10.811Z,87.77
2023-05-21T05:45:08.759Z,87.87
2023-05-21T05:46:08.871Z,87.77
2023-05-21T05:47:08.745Z,87.26
2023-05-21T05:48:08.768Z,87.26
2023-05-21T05:49:08.707Z,87.37
2023-05-21T05:50:08.729Z,87.57
2023-05-21T05:51:08.700Z,87.67
2023-05-21T05:52:08.679Z,87.77
2023-05-21T05:53:08.655Z,87.87
2023-05-21T05:54:08.676Z,87.93
2023-05-21T05:55:08.657Z,87.57
2023-05-21T05:56:08.644Z,87.43
2023-05-21T05:57:08.621Z,87.63
2023-05-21T05:58:08.636Z,87.52
2023-05-21T05:59:08.680Z,87.22
2023-05-21T06:00:08.592Z,87.32
2023-05-21T06:01:08.568Z,87.26
2023-05-21T06:02:08.620Z,87.22
2023-05-21T06:03:08.606Z,87.32
2023-05-21T06:04:08.579Z,87.32
2023-05-21T06:05:08.485Z,87.32
2023-05-21T06:06:08.617Z,87.32
2023-05-21T06:07:08.464Z,87.12
2023-05-21T06:08:08.457Z,87.12
2023-05-21T06:09:08.495Z,86.71
2023-05-21T06:10:08.443Z,86.68
2023-05-21T06:11:08.429Z,86.77
2023-05-21T06:12:09.547Z,87.08
2023-05-21T06:13:08.405Z,86.88
2023-05-21T06:14:08.381Z,86.98
2023-05-21T06:15:08.387Z,86.68
2023-05-21T06:16:08.368Z,86.47
2023-05-21T06:17:08.379Z,85.96
2023-05-21T06:18:08.394Z,85.76
2023-05-21T06:19:08.394Z,85.76
2023-05-21T06:20:08.343Z,85.76
2023-05-21T06:21:08.280Z,85.96
2023-05-21T06:22:08.309Z,85.56
2023-05-21T06:23:08.246Z,85.62
2023-05-21T06:24:08.306Z,86.02
2023-05-21T06:25:08.268Z,85.82
2023-05-21T06:26:08.223Z,85.82
2023-05-21T06:27:08.195Z,86.13
2023-05-21T06:28:08.205Z,86.13
2023-05-21T06:29:08.177Z,86.02
2023-05-21T06:30:08.199Z,86.02
2023-05-21T06:31:08.164Z,85.93
2023-05-21T06:32:08.182Z,85.31
2023-05-21T06:33:08.204Z,85.31
2023-05-21T06:34:08.194Z,85.21
2023-05-21T06:35:08.124Z,85.42
2023-05-21T06:36:08.096Z,85.38
2023-05-21T06:37:08.091Z,85.27
2023-05-21T06:38:08.090Z,84.87
2023-05-21T06:39:08.087Z,84.67
2023-05-21T06:40:08.056Z,84.97
2023-05-21T06:41:08.034Z,85.27
2023-05-21T06:42:08.045Z,85.38
2023-05-21T06:43:07.991Z,84.50
2023-05-21T06:44:07.975Z,84.77
2023-05-21T06:45:07.975Z,84.56
2023-05-21T06:46:08.017Z,84.77
2023-05-21T06:47:07.977Z,85.07
2023-05-21T06:48:07.980Z,85.17
2023-05-21T06:49:07.939Z,84.36
2023-05-21T06:50:07.951Z,84.27
2023-05-21T06:51:07.885Z,84.47
2023-05-21T06:52:07.923Z,84.67
2023-05-21T06:53:07.848Z,84.67
2023-05-21T06:54:07.902Z,84.63
2023-05-21T06:55:07.820Z,84.22
2023-05-21T06:56:07.861Z,84.33
2023-05-21T06:57:07.813Z,84.22
2023-05-21T06:58:07.864Z,84.22
2023-05-21T06:59:07.810Z,83.72
2023-05-21T07:00:07.820Z,84.12
2023-05-21T07:01:07.785Z,83.72
2023-05-21T07:02:07.793Z,83.27
2023-05-21T07:03:07.834Z,83.58
2023-05-21T07:04:07.760Z,83.78
2023-05-21T07:05:07.747Z,83.58
2023-05-21T07:06:07.689Z,82.67
2023-05-21T07:07:07.692Z,82.67
2023-05-21T07:08:08.513Z,82.83
2023-05-21T07:09:07.672Z,83.13
2023-05-21T07:10:07.651Z,83.33
2023-05-21T07:11:07.659Z,81.71
2023-05-21T07:12:07.642Z,81.71
2023-05-21T07:13:07.659Z,81.31
2023-05-21T07:14:07.578Z,81.55
2023-05-21T07:15:07.612Z,82.06
2023-05-21T07:16:07.547Z,82.46
2023-05-21T07:17:07.831Z,82.26
2023-05-21T07:18:07.608Z,82.42
2023-05-21T07:19:07.549Z,82.42
2023-05-21T07:20:07.526Z,81.41
2023-05-21T07:21:07.533Z,81.31
2023-05-21T07:22:07.486Z,81.57
2023-05-21T07:23:07.516Z,81.68
2023-05-21T07:24:07.508Z,81.27
2023-05-21T07:25:07.525Z,81.68
2023-05-21T07:26:07.420Z,81.48
2023-05-21T07:27:17.713Z,82.08
2023-05-21T07:28:08.413Z,81.27
2023-05-21T07:29:07.466Z,80.87
2023-05-21T07:30:07.443Z,81.03
2023-05-21T07:31:07.413Z,80.83
2023-05-21T07:32:07.375Z,80.83
2023-05-21T07:33:07.507Z,81.54
2023-05-21T07:34:07.319Z,81.64
2023-05-21T07:35:12.073Z,80.43
2023-05-21T07:36:07.303Z,79.92
2023-05-21T07:37:07.335Z,80.02
2023-05-21T07:38:07.257Z,80.12
2023-05-21T07:39:07.284Z,80.12
2023-05-21T07:40:07.300Z,80.22
2023-05-21T07:41:07.270Z,80.22
2023-05-21T07:42:07.253Z,80.12
2023-05-21T07:43:07.230Z,80.63
2023-05-21T07:44:07.277Z,80.32
2023-05-21T07:45:07.220Z,80.43
2023-05-21T07:46:07.202Z,80.73
2023-05-21T07:47:07.173Z,81.34
2023-05-21T07:48:07.185Z,81.74
2023-05-21T07:49:07.186Z,81.23
2023-05-21T07:50:07.147Z,80.32
2023-05-21T07:51:07.144Z,80.29
2023-05-21T07:52:07.143Z,80.39
2023-05-21T07:53:07.203Z,80.79
2023-05-21T07:54:07.068Z,80.59
2023-05-21T07:55:07.081Z,80.39
2023-05-21T07:56:07.070Z,80.59
2023-05-21T07:57:07.028Z,80.99
2023-05-21T07:58:07.016Z,79.17
2023-05-21T07:59:07.039Z,79.48
2023-05-21T08:00:07.035Z,79.99
2023-05-21T08:01:07.022Z,79.79
2023-05-21T08:02:06.975Z,79.99
2023-05-21T08:03:07.030Z,80.29
2023-05-21T08:04:07.096Z,80.35
2023-05-21T08:05:07.083Z,79.74
2023-05-21T08:06:06.923Z,80.15
2023-05-21T08:07:06.947Z,80.85
2023-05-21T08:08:06.869Z,80.55
2023-05-21T08:09:06.934Z,80.15
2023-05-21T08:10:06.881Z,79.94
2023-05-21T08:11:06.880Z,79.85
2023-05-21T08:12:06.846Z,80.65
2023-05-21T08:13:06.851Z,80.35
2023-05-21T08:14:06.819Z,81.05
2023-05-21T08:15:06.816Z,80.45
2023-05-21T08:16:06.841Z,80.76
2023-05-21T08:17:06.793Z,80.76
2023-05-21T08:18:06.820Z,81.32
2023-05-21T08:19:06.820Z,81.32
2023-05-21T08:20:06.756Z,80.58
2023-05-21T08:21:06.726Z,80.78
2023-05-21T08:22:06.808Z,80.18
2023-05-21T08:23:06.712Z,79.27
2023-05-21T08:24:06.685Z,78.83
2023-05-21T08:25:06.684Z,78.22
2023-05-21T08:26:06.644Z,78.26
2023-05-21T08:27:06.661Z,78.83
2023-05-21T08:28:06.605Z,79.03
2023-05-21T08:29:06.655Z,78.83
2023-05-21T08:30:06.624Z,78.92
2023-05-21T08:31:06.646Z,78.22
2023-05-21T08:32:06.748Z,78.02
2023-05-21T08:33:06.619Z,78.02
2023-05-21T08:34:06.566Z,77.51
2023-05-21T08:35:06.576Z,77.62
2023-05-21T08:36:06.554Z,77.92
2023-05-21T08:37:06.525Z,77.31
2023-05-21T08:38:06.510Z,77.72
2023-05-21T08:39:06.505Z,78.72
2023-05-21T08:40:06.525Z,78.22
2023-05-21T08:41:06.455Z,77.92
2023-05-21T08:42:06.462Z,78.63
2023-05-21T08:43:06.462Z,78.63
2023-05-21T08:44:06.418Z,78.12
2023-05-21T08:45:06.433Z,78.89
2023-05-21T08:46:06.443Z,79.39
2023-05-21T08:47:06.383Z,77.88
2023-05-21T08:48:06.477Z,77.38
2023-05-21T08:49:06.348Z,77.44
2023-05-21T08:50:06.323Z,77.64
2023-05-21T08:51:06.348Z,78.25
2023-05-21T08:52:06.322Z,78.25
2023-05-21T08:53:16.078Z,77.95
2023-05-21T08:54:07.290Z,77.64
2023-05-21T08:55:06.338Z,77.14
2023-05-21T08:56:06.255Z,77.84
2023-05-21T08:57:06.283Z,77.44
2023-05-21T08:58:06.231Z,77.64
2023-05-21T08:59:06.233Z,77.64
2023-05-21T09:00:06.201Z,76.94
2023-05-21T09:01:06.256Z,76.03
2023-05-21T09:02:06.195Z,76.43
2023-05-21T09:03:06.344Z,77.04
2023-05-21T09:04:19.649Z,76.80
2023-05-21T09:05:07.146Z,77.00
2023-05-21T09:06:06.106Z,77.07
2023-05-21T09:07:06.135Z,77.47
2023-05-21T09:08:06.116Z,76.43
2023-05-21T09:09:06.098Z,75.35
2023-05-21T09:10:06.053Z,75.26
2023-05-21T09:11:06.064Z,75.52
2023-05-21T09:12:06.077Z,75.32
2023-05-21T09:13:06.037Z,75.22
2023-05-21T09:14:06.101Z,75.38
2023-05-21T09:15:06.003Z,74.28
2023-05-21T09:16:06.020Z,73.91
2023-05-21T09:17:06.044Z,74.21
2023-05-21T09:18:06.007Z,74.48
2023-05-21T09:19:06.048Z,74.58
2023-05-21T09:20:05.954Z,74.38
2023-05-21T09:21:05.962Z,74.58
2023-05-21T09:22:05.946Z,74.08
2023-05-21T09:23:05.936Z,74.62
2023-05-21T09:24:05.900Z,74.11
2023-05-21T09:25:05.881Z,74.21
2023-05-21T09:26:05.858Z,74.41
2023-05-21T09:27:05.871Z,75.42
2023-05-21T09:28:05.850Z,75.22
2023-05-21T09:29:05.849Z,74.32
2023-05-21T09:30:05.804Z,75.12
2023-05-21T09:31:05.830Z,74.32
2023-05-21T09:32:05.767Z,74.82
2023-05-21T09:33:05.804Z,74.98
2023-05-21T09:34:05.799Z,75.29
2023-05-21T09:35:05.762Z,74.68
2023-05-21T09:36:05.743Z,73.18
2023-05-21T09:37:08.535Z,73.68
2023-05-21T09:38:06.725Z,74.04
2023-05-21T09:39:05.727Z,75.15
2023-05-21T09:40:05.661Z,74.24
2023-05-21T09:41:05.689Z,73.74
2023-05-21T09:42:05.628Z,74.51
2023-05-21T09:43:05.644Z,73.21
2023-05-21T09:44:05.655Z,73.61
2023-05-21T09:45:05.666Z,74.81
2023-05-21T09:46:05.693Z,72.40
2023-05-21T09:47:05.648Z,73.67
2023-05-21T09:48:05.636Z,74.18
2023-05-21T09:49:05.607Z,74.18
2023-05-21T09:50:05.544Z,73.27
2023-05-21T09:51:05.570Z,72.97
2023-05-21T09:52:05.504Z,72.97
2023-05-21T09:53:05.517Z,72.77
2023-05-21T09:54:05.532Z,73.37
2023-05-21T09:55:05.529Z,73.27
2023-05-21T09:56:05.489Z,72.53
2023-05-21T09:57:05.478Z,71.33
2023-05-21T09:58:05.442Z,70.86
2023-05-21T09:59:05.474Z,71.70
2023-05-21T10:00:05.436Z,72.20
2023-05-21T10:01:05.445Z,72.67
2023-05-21T10:02:05.433Z,72.17
2023-05-21T10:03:05.409Z,72.47
2023-05-21T10:04:05.445Z,72.17
2023-05-21T10:05:05.388Z,72.67
2023-05-21T10:06:05.357Z,72.33
2023-05-21T10:07:05.345Z,72.13
2023-05-21T10:08:05.332Z,70.83
2023-05-21T10:09:05.936Z,71.33
2023-05-21T10:10:05.368Z,70.93
2023-05-21T10:11:05.276Z,71.13
2023-05-21T10:12:05.264Z,71.53
2023-05-21T10:13:05.281Z,72.30
2023-05-21T10:14:05.265Z,71.09
2023-05-21T10:15:05.285Z,71.59
2023-05-21T10:16:05.259Z,71.39
2023-05-21T10:17:05.184Z,70.79
2023-05-21T10:18:05.188Z,71.43
2023-05-21T10:19:05.321Z,72.00
2023-05-21T10:20:05.226Z,71.90
2023-05-21T10:21:05.197Z,72.30
2023-05-21T10:22:05.132Z,71.50
2023-05-21T10:23:05.174Z,71.70
2023-05-21T10:24:05.142Z,71.50
2023-05-21T10:25:05.134Z,71.30
2023-05-21T10:26:05.060Z,71.30
2023-05-21T10:27:05.080Z,72.90
2023-05-21T10:28:05.028Z,71.80
2023-05-21T10:29:05.076Z,71.80
2023-05-21T10:30:04.998Z,70.79
2023-05-21T10:31:05.050Z,70.89
2023-05-21T10:32:04.995Z,71.03
2023-05-21T10:33:05.032Z,72.40
2023-05-21T10:34:05.029Z,72.50
2023-05-21T10:35:04.981Z,72.80
2023-05-21T10:36:04.961Z,72.40
2023-05-21T10:37:04.977Z,71.39
2023-05-21T10:38:04.916Z,71.73
2023-05-21T10:39:04.909Z,72.33
2023-05-21T10:40:04.961Z,72.43
2023-05-21T10:41:04.914Z,73.10
2023-05-21T10:42:04.893Z,73.20
2023-05-21T10:43:04.854Z,73.10
2023-05-21T10:44:04.881Z,72.60
2023-05-21T10:45:04.820Z,72.36
2023-05-21T10:46:04.882Z,72.06
2023-05-21T10:47:04.808Z,73.27
2023-05-21T10:48:04.878Z,72.86
2023-05-21T10:49:04.846Z,73.47
2023-05-21T10:50:04.806Z,73.07
2023-05-21T10:51:04.768Z,71.46
2023-05-21T10:52:04.732Z,72.16
2023-05-21T10:53:04.726Z,72.16
2023-05-21T10:54:04.700Z,71.86
2023-05-21T10:55:04.722Z,71.77
2023-05-21T10:56:04.674Z,72.47
2023-05-21T10:57:04.668Z,71.46
2023-05-21T10:58:04.674Z,71.77
2023-05-21T10:59:04.661Z,71.77
2023-05-21T11:00:04.688Z,72.16
2023-05-21T11:01:04.642Z,72.56
2023-05-21T11:02:04.666Z,71.56
2023-05-21T11:03:04.804Z,72.47
2023-05-21T11:04:04.585Z,73.07
2023-05-21T11:05:04.575Z,72.16
2023-05-21T11:06:04.540Z,72.13
2023-05-21T11:07:04.544Z,72.23
2023-05-21T11:08:04.542Z,72.33
2023-05-21T11:09:04.565Z,71.63
2023-05-21T11:10:04.486Z,72.19
2023-05-21T11:11:04.528Z,71.59
2023-05-21T11:12:04.499Z,70.50
2023-05-21T11:13:04.482Z,71.59
2023-05-21T11:14:04.517Z,71.89
2023-05-21T11:15:04.453Z,71.69
2023-05-21T11:16:04.401Z,70.59
2023-05-21T11:17:04.559Z,70.76
2023-05-21T11:18:04.468Z,71.46
2023-05-21T11:19:04.524Z,70.26
2023-05-21T11:20:04.451Z,70.16
2023-05-21T11:21:04.367Z,70.36
2023-05-21T11:22:04.346Z,70.36
2023-05-21T11:23:04.325Z,70.36
2023-05-21T11:24:04.355Z,68.96
2023-05-21T11:25:04.316Z,69.86
2023-05-21T11:26:04.289Z,70.16
2023-05-21T11:27:04.313Z,69.02
2023-05-21T11:28:04.287Z,68.32
2023-05-21T11:29:04.278Z,69.02
2023-05-21T11:30:04.298Z,69.02
2023-05-21T11:31:04.266Z,68.62
2023-05-21T11:32:04.212Z,69.19
2023-05-21T11:33:04.303Z,69.09
2023-05-21T11:34:04.226Z,69.89
2023-05-21T11:35:04.188Z,69.76
2023-05-21T11:36:04.181Z,69.26
2023-05-21T11:37:04.132Z,68.69
2023-05-21T11:38:04.159Z,69.19
2023-05-21T11:39:04.118Z,69.56
2023-05-21T11:40:04.123Z,69.26
2023-05-21T11:41:04.113Z,69.66
2023-05-21T11:42:04.761Z,69.86
2023-05-21T11:43:04.063Z,70.46
2023-05-21T11:44:04.077Z,70.46
2023-05-21T11:45:04.101Z,70.39
2023-05-21T11:46:04.047Z,71.19
2023-05-21T11:47:04.052Z,71.49
2023-05-21T11:48:04.074Z,71.49
2023-05-21T11:49:04.025Z,71.99
2023-05-21T11:50:03.997Z,72.49
2023-05-21T11:51:03.965Z,73.25
2023-05-21T11:52:03.977Z,71.56
2023-05-21T11:53:03.941Z,70.69
2023-05-21T11:54:04.054Z,71.19
2023-05-21T11:55:03.934Z,71.09
2023-05-21T11:56:03.913Z,70.46
2023-05-21T11:57:03.888Z,69.46
2023-05-21T11:58:03.894Z,69.66
2023-05-21T11:59:03.896Z,69.76
2023-05-21T12:00:03.851Z,70.26
2023-05-21T12:01:03.855Z,70.66
2023-05-21T12:02:03.836Z,70.96
2023-05-21T12:03:03.928Z,70.56
2023-05-21T12:04:03.918Z,70.56
2023-05-21T12:05:03.791Z,71.42
2023-05-21T12:06:03.837Z,70.23
2023-05-21T12:07:03.750Z,69.02
2023-05-21T12:08:03.803Z,69.02
2023-05-21T12:09:03.764Z,69.23
2023-05-21T12:10:03.714Z,69.32
2023-05-21T12:11:03.715Z,69.73
2023-05-21T12:12:03.744Z,68.52
2023-05-21T12:13:03.667Z,67.63
2023-05-21T12:14:03.788Z,68.43
2023-05-21T12:15:03.690Z,69.43
2023-05-21T12:16:06.466Z,68.73
2023-05-21T12:17:03.637Z,68.93
2023-05-21T12:18:03.665Z,69.20
2023-05-21T12:19:03.650Z,69.20
2023-05-21T12:20:03.591Z,68.70
2023-05-21T12:21:03.585Z,68.93
2023-05-21T12:22:03.557Z,69.29
2023-05-21T12:23:03.552Z,69.39
2023-05-21T12:24:03.540Z,69.39
2023-05-21T12:25:03.522Z,69.09
2023-05-21T12:26:03.525Z,68.99
2023-05-21T12:27:03.489Z,68.49
2023-05-21T12:28:03.549Z,68.19
2023-05-21T12:29:03.486Z,68.82
2023-05-21T12:30:03.457Z,69.13
2023-05-21T12:31:03.438Z,69.02
2023-05-21T12:32:03.575Z,68.63
2023-05-21T12:33:03.491Z,68.23
2023-05-21T12:34:03.419Z,68.73
2023-05-21T12:35:03.451Z,69.02
2023-05-21T12:36:03.368Z,68.33
2023-05-21T12:37:03.427Z,68.89
2023-05-21T12:38:03.378Z,67.40
2023-05-21T12:39:03.321Z,67.53
2023-05-21T12:40:03.360Z,67.83
2023-05-21T12:41:03.316Z,67.93
2023-05-21T12:42:03.322Z,67.72
2023-05-21T12:43:03.266Z,67.93
2023-05-21T12:44:03.293Z,68.33
2023-05-21T12:45:03.272Z,69.02
2023-05-21T12:46:03.292Z,69.02
2023-05-21T12:47:03.225Z,69.53
2023-05-21T12:48:03.365Z,68.63
2023-05-21T12:49:03.216Z,68.93
2023-05-21T12:50:03.196Z,69.53
2023-05-21T12:51:03.182Z,70.23
2023-05-21T12:52:03.181Z,70.12